KTGI

Tangier Island Airport

Tangier, Virginia, USA
METAR KTGI 182154Z AUTO 16006KT 10SM CLR 29/26 A2995 RMK AO1
Observed Flight Rules
Jun-18 @ 21:54 UTC (36 minutes ago) Visual Flight Rules
Wind Visibility Clouds
160° at 6 knots 10 miles
  • Clear skies
Temperatures Readings
Current 29°C / 84°F
Dewpoint 26°C / 79°F
Humidity 84%
Altimeter 29.95" Hg
Pressure 1014 hPa
Elevation 2
METAR KTGI 182154Z AUTO 16006KT 10SM CLR 29/26 A2995 RMK AO1
Observed Flight Rules
Jun-18 @ 21:54 UTC
(36 minutes ago)
VFR
Wind Visibility
160° at 6 knots 10 miles
Clouds
  • Clear skies
Temperature Dewpoint
29°C / 84°F 26°C / 79°F
Humidity Altimeter Pressure
84% 29.95" Hg 1014 hPa